Time;durP1;ratioP1;P1;durP2;ratioP2;P2;SDS_P1;SDS_P2;PMS_P1;PMS_P2;Temp;Humidity;BMP_temperature;BMP_pressure;BME280_temperature;BME280_humidity;BME280_pressure;Samples;Min_cycle;Max_cycle;Signal;HPM_P1;HPM_P2
2021/03/05 00:01:15;;;;;;;28.00;9.45;;;;;;;;;;5102261;28;20188;-57
2021/03/05 00:03:43;;;;;;;15.60;9.10;;;;;;;;;;5120356;28;20226;-46
2021/03/05 00:06:10;;;;;;;12.05;8.52;;;;;;;;;;5120237;28;20206;-50
2021/03/05 00:08:38;;;;;;;18.02;7.70;;;;;;;;;;5120562;28;20349;-57
2021/03/05 00:14:11;;;;;;;19.92;6.40;;;;;;;;;;5120324;28;20213;-50
2021/03/05 00:16:37;;;;;;;15.68;7.20;;;;;;;;;;5121130;28;20254;-50
2021/03/05 00:19:05;;;;;;;14.57;6.35;;;;;;;;;;5119965;28;20221;-47
2021/03/05 00:21:32;;;;;;;16.85;6.18;;;;;;;;;;5120301;28;20221;-56
2021/03/05 00:24:00;;;;;;;17.67;6.47;;;;;;;;;;5121069;28;20179;-51
2021/03/05 00:26:40;;;;;;;17.20;6.40;;;;;;;;;;5120755;28;20210;-50
2021/03/05 00:29:07;;;;;;;17.13;7.47;;;;;;;;;;5120262;28;20199;-50
2021/03/05 00:31:34;;;;;;;14.40;6.88;;;;;;;;;;5120508;28;20206;-50
2021/03/05 00:34:01;;;;;;;20.65;6.28;;;;;;;;;;5119972;28;20213;-54
2021/03/05 00:36:27;;;;;;;25.58;7.40;;;;;;;;;;5119582;28;20204;-52
2021/03/05 00:39:16;;;;;;;14.65;6.40;;;;;;;;;;5119662;28;20231;-50
2021/03/05 00:41:44;;;;;;;29.90;7.32;;;;;;;;;;5119133;28;20197;-54
2021/03/05 00:44:11;;;;;;;19.95;6.82;;;;;;;;;;5119230;28;20233;-49
2021/03/05 00:46:39;;;;;;;18.38;5.10;;;;;;;;;;5119584;28;20191;-44
2021/03/05 00:49:06;;;;;;;18.88;6.43;;;;;;;;;;5120164;28;20182;-52
2021/03/05 00:51:33;;;;;;;13.20;5.63;;;;;;;;;;5120132;28;20214;-48
2021/03/05 00:54:06;;;;;;;16.73;5.63;;;;;;;;;;5119546;28;20190;-59
2021/03/05 00:56:32;;;;;;;10.95;4.40;;;;;;;;;;5119618;28;20208;-48
2021/03/05 00:59:00;;;;;;;12.30;4.20;;;;;;;;;;5118938;28;20217;-51
2021/03/05 01:01:33;;;;;;;12.10;3.95;;;;;;;;;;5119273;28;20192;-51
2021/03/05 01:04:00;;;;;;;14.40;4.90;;;;;;;;;;5127599;28;20239;-53
2021/03/05 01:06:27;;;;;;;17.63;4.80;;;;;;;;;;5118672;28;20226;-50
2021/03/05 01:09:08;;;;;;;19.85;6.75;;;;;;;;;;5119129;28;20244;-56
2021/03/05 01:11:34;;;;;;;14.55;4.70;;;;;;;;;;5119053;28;20229;-53
2021/03/05 01:14:02;;;;;;;18.13;7.00;;;;;;;;;;5124742;28;20198;-50
2021/03/05 01:16:30;;;;;;;19.40;7.15;;;;;;;;;;5118507;28;20211;-50
2021/03/05 01:18:57;;;;;;;26.55;9.90;;;;;;;;;;5118761;28;20211;-53
2021/03/05 01:21:24;;;;;;;15.15;6.70;;;;;;;;;;5121198;28;20210;-49
2021/03/05 01:23:52;;;;;;;20.75;8.23;;;;;;;;;;5139237;28;20190;-48
2021/03/05 01:26:19;;;;;;;30.02;9.20;;;;;;;;;;5139489;28;20198;-53
2021/03/05 01:28:46;;;;;;;18.63;7.20;;;;;;;;;;5138967;28;20292;-54
2021/03/05 01:31:25;;;;;;;23.02;7.40;;;;;;;;;;5139091;28;20198;-52
2021/03/05 01:33:52;;;;;;;22.00;7.97;;;;;;;;;;5138975;28;20201;-52
2021/03/05 01:36:19;;;;;;;18.98;7.07;;;;;;;;;;5138795;28;20216;-51
2021/03/05 01:38:47;;;;;;;18.27;7.60;;;;;;;;;;5138907;28;20237;-46
2021/03/05 01:41:15;;;;;;;16.83;7.10;;;;;;;;;;5138783;28;20225;-46
2021/03/05 01:43:50;;;;;;;16.50;6.80;;;;;;;;;;5139149;28;20258;-48
2021/03/05 01:46:17;;;;;;;21.73;6.93;;;;;;;;;;5138870;28;20194;-52
2021/03/05 01:48:45;;;;;;;24.73;7.93;;;;;;;;;;5138856;28;20210;-54
2021/03/05 01:51:13;;;;;;;16.88;6.55;;;;;;;;;;5138825;28;20196;-52
2021/03/05 01:53:40;;;;;;;18.73;8.05;;;;;;;;;;5139049;28;20195;-51
2021/03/05 01:56:08;;;;;;;17.73;6.68;;;;;;;;;;5139136;28;20282;-52
2021/03/05 01:58:44;;;;;;;19.98;7.55;;;;;;;;;;5138589;28;20259;-52
2021/03/05 02:01:11;;;;;;;18.40;8.05;;;;;;;;;;5138416;28;20216;-47
2021/03/05 02:03:38;;;;;;;21.00;7.60;;;;;;;;;;5138159;28;20221;-49
2021/03/05 02:06:06;;;;;;;30.67;9.40;;;;;;;;;;5138612;27;20210;-54
2021/03/05 02:08:33;;;;;;;17.58;6.70;;;;;;;;;;5119425;28;20211;-44
2021/03/05 02:11:27;;;;;;;20.80;7.25;;;;;;;;;;5117867;28;20195;-49
2021/03/05 02:13:56;;;;;;;16.98;6.57;;;;;;;;;;5120310;28;20233;-49
2021/03/05 02:16:27;;;;;;;20.02;6.68;;;;;;;;;;5125891;28;20192;-56
2021/03/05 02:19:12;;;;;;;14.55;6.15;;;;;;;;;;5117486;27;20205;-54
2021/03/05 02:21:55;;;;;;;34.35;7.78;;;;;;;;;;5116798;28;20207;-54
2021/03/05 02:24:53;;;;;;;23.55;6.53;;;;;;;;;;5117518;28;20222;-51
2021/03/05 02:27:31;;;;;;;10.50;5.13;;;;;;;;;;5117336;28;20196;-50
2021/03/05 02:33:06;;;;;;;18.85;6.65;;;;;;;;;;5116825;28;20191;-49
2021/03/05 02:35:33;;;;;;;13.88;5.28;;;;;;;;;;5116977;28;20235;-51
2021/03/05 02:38:09;;;;;;;21.80;7.53;;;;;;;;;;5117388;28;20231;-59
2021/03/05 02:40:38;;;;;;;26.95;8.10;;;;;;;;;;5117486;28;20189;-51
2021/03/05 02:43:06;;;;;;;27.38;7.32;;;;;;;;;;5117384;28;20217;-53
2021/03/05 02:45:34;;;;;;;22.45;8.43;;;;;;;;;;5120906;28;20209;-54
2021/03/05 02:48:02;;;;;;;27.17;9.82;;;;;;;;;;5137324;28;20197;-50
2021/03/05 02:50:32;;;;;;;26.63;10.63;;;;;;;;;;5137655;28;20206;-49
2021/03/05 02:53:01;;;;;;;24.73;11.18;;;;;;;;;;5138148;28;20180;-50
2021/03/05 02:55:38;;;;;;;24.10;8.90;;;;;;;;;;5137494;28;20256;-51
2021/03/05 02:58:06;;;;;;;37.67;10.90;;;;;;;;;;5137983;28;20208;-52
2021/03/05 03:00:33;;;;;;;26.40;11.93;;;;;;;;;;5137182;28;20248;-52
2021/03/05 03:03:01;;;;;;;32.00;12.70;;;;;;;;;;5142443;27;20239;-50
2021/03/05 03:05:30;;;;;;;36.50;14.48;;;;;;;;;;5139584;27;20221;-53
2021/03/05 03:08:15;;;;;;;36.67;13.55;;;;;;;;;;5137266;28;20179;-54
2021/03/05 03:10:43;;;;;;;31.40;11.70;;;;;;;;;;5116394;28;20198;-49
2021/03/05 03:13:11;;;;;;;23.60;13.00;;;;;;;;;;5122260;28;20216;-54
2021/03/05 03:15:58;;;;;;;37.45;13.60;;;;;;;;;;5137163;28;20220;-55
2021/03/05 03:18:25;;;;;;;37.15;15.43;;;;;;;;;;5137127;28;20216;-51
2021/03/05 03:20:54;;;;;;;41.42;16.40;;;;;;;;;;5137413;28;20203;-51
2021/03/05 03:23:21;;;;;;;42.83;16.15;;;;;;;;;;5137442;28;20185;-49
2021/03/05 03:25:49;;;;;;;37.63;16.13;;;;;;;;;;5137530;28;20195;-51
2021/03/05 03:28:34;;;;;;;37.80;16.13;;;;;;;;;;5137167;28;20211;-47
2021/03/05 03:31:01;;;;;;;73.20;18.92;;;;;;;;;;5137045;28;20180;-52
2021/03/05 03:33:28;;;;;;;45.15;18.25;;;;;;;;;;5136831;28;20192;-48
2021/03/05 03:35:55;;;;;;;44.00;17.95;;;;;;;;;;5136968;28;20208;-52
2021/03/05 03:38:22;;;;;;;42.22;17.63;;;;;;;;;;5137023;28;20216;-55
2021/03/05 03:40:50;;;;;;;36.35;18.20;;;;;;;;;;5137266;28;20220;-50
2021/03/05 03:43:27;;;;;;;47.42;18.00;;;;;;;;;;5136358;28;20216;-51
2021/03/05 03:45:54;;;;;;;40.70;18.08;;;;;;;;;;5136966;28;20212;-55
2021/03/05 03:48:21;;;;;;;37.30;16.60;;;;;;;;;;5136908;28;20208;-51
2021/03/05 03:50:52;;;;;;;45.30;17.38;;;;;;;;;;5130434;28;20232;-54
2021/03/05 03:53:21;;;;;;;42.58;18.00;;;;;;;;;;5136286;28;20186;-52
2021/03/05 03:55:56;;;;;;;31.25;14.40;;;;;;;;;;5117234;28;20226;-52
2021/03/05 03:58:23;;;;;;;39.08;16.92;;;;;;;;;;5120465;28;20196;-52
2021/03/05 04:00:51;;;;;;;30.05;16.33;;;;;;;;;;5136734;28;20207;-52
2021/03/05 04:03:19;;;;;;;52.58;16.67;;;;;;;;;;5135519;28;20209;-51
2021/03/05 04:05:47;;;;;;;35.88;14.77;;;;;;;;;;5136269;28;20188;-49
2021/03/05 04:08:26;;;;;;;33.70;16.35;;;;;;;;;;5127184;28;20263;-50
2021/03/05 04:10:54;;;;;;;37.47;13.40;;;;;;;;;;5116196;28;20210;-48
2021/03/05 04:13:23;;;;;;;25.13;15.10;;;;;;;;;;5116097;28;20212;-56
2021/03/05 04:16:27;;;;;;;33.97;17.60;;;;;;;;;;5135722;28;20214;-47
2021/03/05 04:18:55;;;;;;;27.17;16.55;;;;;;;;;;5133248;27;20198;-58
2021/03/05 04:21:23;;;;;;;28.50;15.80;;;;;;;;;;5136271;28;20260;-50
2021/03/05 04:24:01;;;;;;;31.23;16.48;;;;;;;;;;5136401;28;20198;-44
2021/03/05 04:26:28;;;;;;;31.02;15.25;;;;;;;;;;5127772;28;20235;-53
2021/03/05 04:28:55;;;;;;;29.17;16.35;;;;;;;;;;5116420;28;20203;-53
2021/03/05 04:31:23;;;;;;;31.23;18.48;;;;;;;;;;5128297;28;20192;-49
2021/03/05 04:33:50;;;;;;;28.52;17.92;;;;;;;;;;5134684;28;20205;-50
2021/03/05 04:36:16;;;;;;;29.50;16.58;;;;;;;;;;5136238;28;20233;-55
2021/03/05 04:39:20;;;;;;;28.13;16.80;;;;;;;;;;5136746;27;20235;-50
2021/03/05 04:41:47;;;;;;;25.95;15.02;;;;;;;;;;5127921;28;20272;-49
2021/03/05 04:44:14;;;;;;;29.50;15.45;;;;;;;;;;5136372;28;20219;-49
2021/03/05 04:46:41;;;;;;;34.95;16.95;;;;;;;;;;5140277;28;20208;-46
2021/03/05 04:49:08;;;;;;;29.10;17.30;;;;;;;;;;5139603;28;20202;-46
2021/03/05 04:51:39;;;;;;;30.83;17.00;;;;;;;;;;5139958;28;20217;-50
2021/03/05 04:54:07;;;;;;;26.60;18.63;;;;;;;;;;5138882;28;20198;-49
2021/03/05 04:56:36;;;;;;;24.77;16.02;;;;;;;;;;5133767;28;20269;-54
2021/03/05 04:59:32;;;;;;;32.60;18.20;;;;;;;;;;5120895;28;20229;-55
2021/03/05 05:02:02;;;;;;;28.77;16.52;;;;;;;;;;5071456;28;20225;-53
2021/03/05 05:04:29;;;;;;;29.45;18.15;;;;;;;;;;5054932;28;20216;-57
2021/03/05 05:06:57;;;;;;;27.38;16.65;;;;;;;;;;5061124;28;20208;-52
2021/03/05 05:09:25;;;;;;;28.50;15.82;;;;;;;;;;5133774;27;20196;-52
2021/03/05 05:12:12;;;;;;;23.48;15.10;;;;;;;;;;5067657;27;20200;-55
2021/03/05 05:14:49;;;;;;;30.13;16.73;;;;;;;;;;5055486;28;20244;-58
2021/03/05 05:17:17;;;;;;;27.23;16.48;;;;;;;;;;5056048;28;20195;-53
2021/03/05 05:19:44;;;;;;;26.98;15.38;;;;;;;;;;5055665;28;20220;-58
2021/03/05 05:22:11;;;;;;;34.88;17.85;;;;;;;;;;5046806;28;20223;-57
2021/03/05 05:24:41;;;;;;;25.55;15.90;;;;;;;;;;5055033;28;20212;-53
2021/03/05 05:27:08;;;;;;;22.50;13.63;;;;;;;;;;5055481;28;20198;-47
2021/03/05 05:29:34;;;;;;;21.55;13.10;;;;;;;;;;5070753;28;20200;-49
2021/03/05 05:32:04;;;;;;;18.35;12.70;;;;;;;;;;5055227;28;20214;-55
2021/03/05 05:34:32;;;;;;;20.90;13.95;;;;;;;;;;5054275;28;20572;-54
2021/03/05 05:36:59;;;;;;;21.58;13.57;;;;;;;;;;5054054;28;20243;-55
2021/03/05 05:39:26;;;;;;;26.73;13.98;;;;;;;;;;5044680;28;20399;-48
2021/03/05 05:41:53;;;;;;;21.73;12.70;;;;;;;;;;5055196;28;20192;-49
2021/03/05 05:44:40;;;;;;;20.10;13.52;;;;;;;;;;5041202;28;20197;-49
2021/03/05 05:47:07;;;;;;;23.17;12.32;;;;;;;;;;5037982;28;20211;-54
2021/03/05 05:49:37;;;;;;;18.30;11.45;;;;;;;;;;5052564;27;20210;-55
2021/03/05 05:52:04;;;;;;;26.92;16.77;;;;;;;;;;5075203;27;20690;-53
2021/03/05 05:54:33;;;;;;;17.70;12.77;;;;;;;;;;5073861;27;20267;-50
2021/03/05 05:57:02;;;;;;;18.80;11.25;;;;;;;;;;5055183;28;20180;-56
2021/03/05 05:59:29;;;;;;;18.83;11.63;;;;;;;;;;5055198;28;20214;-58
2021/03/05 06:01:56;;;;;;;16.48;10.98;;;;;;;;;;5061187;28;20229;-53
2021/03/05 06:04:31;;;;;;;19.15;11.55;;;;;;;;;;5040724;28;20255;-48
2021/03/05 06:06:59;;;;;;;18.45;11.25;;;;;;;;;;5048009;28;20218;-50
2021/03/05 06:09:26;;;;;;;18.75;11.82;;;;;;;;;;5054483;28;20197;-54
2021/03/05 06:12:12;;;;;;;19.15;12.15;;;;;;;;;;5054329;28;20250;-57
2021/03/05 06:14:40;;;;;;;20.73;14.75;;;;;;;;;;5044827;28;20264;-51
2021/03/05 06:17:07;;;;;;;15.90;11.13;;;;;;;;;;5054135;28;20194;-47
2021/03/05 06:19:41;;;;;;;17.40;12.70;;;;;;;;;;5066637;28;20221;-56
2021/03/05 06:22:24;;;;;;;17.55;11.35;;;;;;;;;;5138993;28;20210;-57
2021/03/05 06:24:51;;;;;;;19.98;12.63;;;;;;;;;;5087506;28;20235;-52
2021/03/05 06:27:19;;;;;;;17.65;11.32;;;;;;;;;;5054091;28;20218;-57
2021/03/05 06:29:47;;;;;;;19.00;12.68;;;;;;;;;;5054108;28;20197;-54
2021/03/05 06:32:15;;;;;;;19.48;13.15;;;;;;;;;;5069392;28;20203;-48
2021/03/05 06:38:00;;;;;;;26.63;14.00;;;;;;;;;;5049254;28;20647;-48
2021/03/05 06:40:27;;;;;;;20.23;13.13;;;;;;;;;;5055128;27;20209;-56
2021/03/05 06:42:55;;;;;;;19.60;11.85;;;;;;;;;;5075577;27;20213;-57
2021/03/05 06:45:23;;;;;;;16.70;11.55;;;;;;;;;;5054198;28;20221;-50
2021/03/05 06:48:01;;;;;;;17.08;11.65;;;;;;;;;;5058700;28;20209;-56
2021/03/05 06:50:45;;;;;;;18.75;11.70;;;;;;;;;;5054024;28;20196;-52
2021/03/05 06:53:23;;;;;;;32.05;11.40;;;;;;;;;;5059933;28;20233;-52
2021/03/05 06:55:51;;;;;;;14.63;10.38;;;;;;;;;;5073764;28;20221;-51
2021/03/05 06:58:18;;;;;;;15.10;10.65;;;;;;;;;;5065970;28;20269;-56
2021/03/05 07:01:04;;;;;;;15.65;11.82;;;;;;;;;;5053106;28;20304;-49
2021/03/05 07:03:30;;;;;;;19.15;11.07;;;;;;;;;;5053451;28;20197;-58
2021/03/05 07:05:58;;;;;;;15.52;10.95;;;;;;;;;;5072065;28;20194;-56
2021/03/05 07:08:56;;;;;;;13.02;9.35;;;;;;;;;;5076773;28;20269;-49
2021/03/05 07:11:34;;;;;;;17.20;11.10;;;;;;;;;;5064315;28;20235;-53
2021/03/05 07:14:01;;;;;;;16.60;9.70;;;;;;;;;;5072154;28;20205;-52
2021/03/05 07:16:38;;;;;;;17.88;10.00;;;;;;;;;;5072770;28;20237;-50
2021/03/05 07:19:05;;;;;;;16.73;10.13;;;;;;;;;;5072843;28;20197;-57
2021/03/05 07:21:37;;;;;;;12.73;9.13;;;;;;;;;;5072988;28;20209;-48
2021/03/05 07:24:06;;;;;;;14.30;10.68;;;;;;;;;;5072563;28;20213;-57
2021/03/05 07:26:35;;;;;;;12.48;7.63;;;;;;;;;;5072299;28;20205;-45
2021/03/05 07:29:24;;;;;;;12.40;9.25;;;;;;;;;;5072901;28;20226;-49
2021/03/05 07:32:01;;;;;;;12.27;8.93;;;;;;;;;;5101673;28;20239;-48
2021/03/05 07:34:30;;;;;;;14.75;8.25;;;;;;;;;;5112659;28;20206;-55
2021/03/05 07:36:58;;;;;;;14.18;8.60;;;;;;;;;;5115209;28;20214;-52
2021/03/05 07:39:26;;;;;;;15.18;10.00;;;;;;;;;;5114949;28;20269;-55
2021/03/05 07:42:34;;;;;;;13.48;9.27;;;;;;;;;;5115356;28;20243;-48
2021/03/05 07:45:04;;;;;;;10.48;7.75;;;;;;;;;;5108004;28;20212;-55
2021/03/05 07:47:32;;;;;;;12.20;9.13;;;;;;;;;;5134271;28;20201;-52
2021/03/05 07:50:06;;;;;;;10.65;7.63;;;;;;;;;;5125166;28;20188;-55
2021/03/05 07:52:37;;;;;;;10.25;8.27;;;;;;;;;;5136197;28;20206;-55
2021/03/05 07:55:44;;;;;;;10.43;7.05;;;;;;;;;;5135794;28;20226;-53
2021/03/05 07:58:11;;;;;;;16.42;8.52;;;;;;;;;;5133710;27;20201;-57
2021/03/05 08:00:50;;;;;;;12.90;9.57;;;;;;;;;;5134302;27;20197;-49
2021/03/05 08:03:18;;;;;;;17.90;8.55;;;;;;;;;;5136266;27;20190;-56
2021/03/05 08:05:46;;;;;;;14.27;9.35;;;;;;;;;;5132193;28;20201;-46
2021/03/05 08:08:23;;;;;;;15.20;7.93;;;;;;;;;;5124823;27;20288;-46
2021/03/05 08:10:58;;;;;;;13.85;7.78;;;;;;;;;;5133266;28;20198;-51
2021/03/05 08:13:50;;;;;;;11.32;7.65;;;;;;;;;;5135648;27;20192;-51
2021/03/05 08:16:38;;;;;;;12.23;7.45;;;;;;;;;;5133684;27;20212;-51
2021/03/05 08:19:41;;;;;;;13.45;7.20;;;;;;;;;;5134721;28;20218;-48
2021/03/05 08:22:10;;;;;;;12.75;7.00;;;;;;;;;;5139265;28;20216;-54
2021/03/05 08:24:40;;;;;;;9.55;6.57;;;;;;;;;;5127350;28;20267;-58
2021/03/05 08:27:09;;;;;;;9.13;6.15;;;;;;;;;;5138121;27;20203;-51
2021/03/05 08:29:53;;;;;;;12.48;6.95;;;;;;;;;;5138491;27;20196;-55
2021/03/05 08:32:38;;;;;;;8.00;6.13;;;;;;;;;;5127648;28;20195;-56
2021/03/05 08:35:09;;;;;;;12.15;6.40;;;;;;;;;;5138993;28;20233;-54
2021/03/05 08:37:38;;;;;;;8.02;5.60;;;;;;;;;;5131266;28;20199;-54
2021/03/05 08:40:22;;;;;;;10.20;5.90;;;;;;;;;;5135619;28;20235;-58
2021/03/05 08:43:06;;;;;;;9.65;5.22;;;;;;;;;;5114768;28;20198;-50
2021/03/05 08:45:33;;;;;;;8.10;5.78;;;;;;;;;;5116626;28;20291;-48
2021/03/05 08:48:01;;;;;;;8.88;5.70;;;;;;;;;;5111232;28;20214;-53
2021/03/05 08:50:41;;;;;;;12.75;6.85;;;;;;;;;;5114300;28;20615;-54
2021/03/05 08:53:11;;;;;;;9.00;6.40;;;;;;;;;;5116401;28;20202;-57
2021/03/05 08:55:41;;;;;;;11.60;5.53;;;;;;;;;;5118238;28;20673;-57
2021/03/05 08:58:08;;;;;;;9.07;6.15;;;;;;;;;;5117117;28;20315;-51
2021/03/05 09:00:36;;;;;;;9.75;5.70;;;;;;;;;;5118594;28;20262;-45
2021/03/05 09:03:07;;;;;;;7.32;5.28;;;;;;;;;;5118525;28;20300;-51
2021/03/05 09:05:52;;;;;;;13.95;5.68;;;;;;;;;;5118355;28;20195;-49
2021/03/05 09:08:22;;;;;;;8.65;5.88;;;;;;;;;;5118488;28;20199;-56
2021/03/05 09:10:51;;;;;;;10.10;5.10;;;;;;;;;;5117767;28;20195;-50
2021/03/05 09:13:28;;;;;;;8.27;4.88;;;;;;;;;;5118407;28;20196;-49
2021/03/05 09:15:56;;;;;;;6.55;4.63;;;;;;;;;;5118842;28;20222;-54
2021/03/05 09:18:24;;;;;;;8.65;5.07;;;;;;;;;;5117492;28;20407;-55
2021/03/05 09:20:56;;;;;;;11.18;5.10;;;;;;;;;;5118427;28;20223;-58
2021/03/05 09:23:29;;;;;;;6.82;4.70;;;;;;;;;;5118199;28;20203;-50
2021/03/05 09:25:57;;;;;;;9.63;5.05;;;;;;;;;;5098106;28;20244;-59
2021/03/05 09:28:43;;;;;;;7.35;4.28;;;;;;;;;;5109249;28;20226;-51
2021/03/05 09:31:10;;;;;;;5.63;4.10;;;;;;;;;;5117231;28;20214;-53
2021/03/05 09:33:49;;;;;;;8.77;4.72;;;;;;;;;;5116708;28;20203;-55
2021/03/05 09:39:21;;;;;;;8.02;4.47;;;;;;;;;;5098606;28;20185;-49
2021/03/05 09:41:48;;;;;;;6.15;4.05;;;;;;;;;;5067322;28;20225;-53
2021/03/05 09:44:21;;;;;;;6.15;3.88;;;;;;;;;;5062299;28;20285;-60
2021/03/05 09:46:56;;;;;;;7.85;4.65;;;;;;;;;;5061556;28;20200;-54
2021/03/05 09:49:25;;;;;;;9.27;5.07;;;;;;;;;;5073536;28;20322;-51
2021/03/05 09:51:55;;;;;;;6.60;4.18;;;;;;;;;;5073936;28;20268;-57
2021/03/05 09:54:34;;;;;;;17.00;4.90;;;;;;;;;;5073178;28;20232;-55
2021/03/05 09:57:21;;;;;;;7.78;4.30;;;;;;;;;;5072479;28;20214;-52
2021/03/05 09:59:49;;;;;;;5.65;3.90;;;;;;;;;;5074149;28;20205;-50
2021/03/05 10:02:20;;;;;;;7.20;4.05;;;;;;;;;;5068375;28;20197;-45
2021/03/05 10:04:53;;;;;;;9.27;5.35;;;;;;;;;;5059332;28;20190;-50
2021/03/05 10:07:20;;;;;;;5.38;3.80;;;;;;;;;;5073863;28;20201;-49
2021/03/05 10:09:47;;;;;;;9.40;4.93;;;;;;;;;;5074956;28;20192;-51
2021/03/05 10:12:14;;;;;;;10.20;3.92;;;;;;;;;;5059024;28;20195;-53
2021/03/05 10:14:41;;;;;;;5.75;4.25;;;;;;;;;;5062761;28;20185;-55
2021/03/05 10:17:10;;;;;;;10.43;4.70;;;;;;;;;;5074836;28;20268;-51
2021/03/05 10:19:38;;;;;;;6.32;3.88;;;;;;;;;;5074082;28;20203;-55
2021/03/05 10:22:05;;;;;;;6.30;4.40;;;;;;;;;;5075045;28;20197;-55
2021/03/05 10:24:42;;;;;;;10.23;5.60;;;;;;;;;;5074358;28;20253;-58
2021/03/05 10:27:10;;;;;;;5.78;2.88;;;;;;;;;;5074405;28;20504;-53
2021/03/05 10:29:38;;;;;;;11.23;4.57;;;;;;;;;;5065431;28;20186;-52
2021/03/05 10:32:24;;;;;;;5.60;4.05;;;;;;;;;;5054176;28;20197;-57
2021/03/05 10:34:52;;;;;;;8.70;4.18;;;;;;;;;;5069494;28;20277;-53
2021/03/05 10:37:19;;;;;;;5.15;3.25;;;;;;;;;;5074212;28;20204;-59
2021/03/05 10:39:47;;;;;;;9.20;4.85;;;;;;;;;;5056327;28;20236;-53
2021/03/05 10:42:15;;;;;;;6.35;4.05;;;;;;;;;;5052941;28;20202;-48
2021/03/05 10:44:49;;;;;;;7.75;4.32;;;;;;;;;;5054677;28;20186;-52
2021/03/05 10:47:17;;;;;;;7.53;3.83;;;;;;;;;;5065504;28;20234;-52
2021/03/05 10:49:45;;;;;;;6.28;4.10;;;;;;;;;;5073672;28;20209;-52
2021/03/05 10:52:14;;;;;;;6.15;4.30;;;;;;;;;;5065071;27;20222;-50
2021/03/05 10:54:41;;;;;;;9.20;4.20;;;;;;;;;;5073619;28;20197;-51
2021/03/05 10:57:08;;;;;;;5.30;3.75;;;;;;;;;;5073331;28;20628;-51
2021/03/05 10:59:47;;;;;;;11.43;3.80;;;;;;;;;;5073791;27;20287;-55
2021/03/05 11:02:14;;;;;;;8.20;4.70;;;;;;;;;;5074134;28;20210;-53
2021/03/05 11:04:41;;;;;;;14.15;6.47;;;;;;;;;;5055610;28;20202;-58
2021/03/05 11:07:32;;;;;;;12.73;5.93;;;;;;;;;;5080171;27;20208;-53
2021/03/05 11:10:02;;;;;;;14.32;6.00;;;;;;;;;;5060899;27;20237;-53
2021/03/05 11:12:30;;;;;;;5.85;3.60;;;;;;;;;;5047445;28;20228;-53
2021/03/05 11:15:07;;;;;;;16.30;5.32;;;;;;;;;;5052800;28;20198;-51
2021/03/05 11:17:37;;;;;;;5.40;3.33;;;;;;;;;;5052662;27;20208;-55
2021/03/05 11:20:29;;;;;;;23.80;6.13;;;;;;;;;;5053362;27;20185;-48
2021/03/05 11:22:58;;;;;;;11.57;4.78;;;;;;;;;;5049746;27;20206;-49
2021/03/05 11:25:35;;;;;;;7.15;4.60;;;;;;;;;;5050512;27;20210;-53
2021/03/05 11:28:05;;;;;;;7.38;4.28;;;;;;;;;;5051292;28;20214;-52
2021/03/05 11:30:33;;;;;;;5.88;4.20;;;;;;;;;;5052279;28;20206;-55
2021/03/05 11:33:00;;;;;;;11.05;5.45;;;;;;;;;;5051316;28;20194;-54
2021/03/05 11:35:46;;;;;;;7.70;4.00;;;;;;;;;;5052132;28;20242;-51
2021/03/05 11:38:13;;;;;;;6.45;4.00;;;;;;;;;;5052054;28;20205;-52
2021/03/05 11:40:40;;;;;;;9.25;4.28;;;;;;;;;;5052322;28;20193;-57
2021/03/05 11:43:28;;;;;;;8.00;4.00;;;;;;;;;;5052234;28;20210;-54
2021/03/05 11:45:57;;;;;;;15.50;5.90;;;;;;;;;;5046681;28;20190;-49
2021/03/05 11:48:25;;;;;;;8.10;4.40;;;;;;;;;;5050534;28;20202;-50
2021/03/05 11:50:52;;;;;;;9.80;5.38;;;;;;;;;;5051685;28;20205;-56
2021/03/05 11:53:23;;;;;;;8.02;4.35;;;;;;;;;;5052025;28;20195;-56
2021/03/05 11:55:54;;;;;;;7.57;3.70;;;;;;;;;;5043525;27;20335;-46
2021/03/05 11:58:21;;;;;;;6.95;3.15;;;;;;;;;;5026843;28;20208;-52
2021/03/05 12:00:48;;;;;;;17.05;6.55;;;;;;;;;;5028565;28;20197;-49
2021/03/05 12:03:34;;;;;;;12.65;4.40;;;;;;;;;;5032190;28;20228;-58
2021/03/05 12:06:02;;;;;;;6.65;4.32;;;;;;;;;;5033189;28;20206;-51
2021/03/05 12:08:28;;;;;;;7.97;4.10;;;;;;;;;;5032691;28;20219;-56
2021/03/05 12:14:12;;;;;;;6.60;3.75;;;;;;;;;;5043467;27;20228;-48
2021/03/05 12:16:39;;;;;;;9.52;4.07;;;;;;;;;;5052956;28;20241;-49
2021/03/05 12:19:11;;;;;;;16.38;5.88;;;;;;;;;;5052936;28;20209;-53
2021/03/05 12:21:39;;;;;;;7.38;4.25;;;;;;;;;;5039013;28;20234;-51
2021/03/05 12:24:07;;;;;;;25.42;6.65;;;;;;;;;;5033721;28;20213;-51
2021/03/05 12:26:37;;;;;;;10.50;4.60;;;;;;;;;;5033123;28;20214;-49
2021/03/05 12:29:04;;;;;;;11.35;4.60;;;;;;;;;;5033505;28;20199;-54
2021/03/05 12:31:31;;;;;;;6.45;3.75;;;;;;;;;;5033572;28;20218;-49
2021/03/05 12:34:24;;;;;;;7.75;4.32;;;;;;;;;;5013488;28;20230;-49
2021/03/05 12:36:52;;;;;;;12.48;4.80;;;;;;;;;;5013809;28;20232;-51
2021/03/05 12:39:19;;;;;;;7.05;4.68;;;;;;;;;;5018158;28;20214;-54
2021/03/05 12:41:59;;;;;;;9.23;4.72;;;;;;;;;;5026046;28;20207;-53
2021/03/05 12:50:32;;;;;;;9.77;4.25;;;;;;;;;;5079481;22;20238;-53
2021/03/05 12:53:00;;;;;;;7.97;4.13;;;;;;;;;;5116540;28;20199;-51
2021/03/05 12:55:46;;;;;;;14.95;5.68;;;;;;;;;;5116400;28;20235;-42
2021/03/05 12:58:15;;;;;;;10.70;4.20;;;;;;;;;;5116388;28;20224;-52
2021/03/05 13:00:42;;;;;;;6.22;3.67;;;;;;;;;;5110161;28;20205;-52
2021/03/05 13:03:18;;;;;;;10.88;4.18;;;;;;;;;;5112716;28;20204;-48
2021/03/05 13:06:09;;;;;;;5.93;3.33;;;;;;;;;;5117300;28;20208;-52
2021/03/05 13:09:02;;;;;;;9.15;5.15;;;;;;;;;;5120061;28;20199;-47
2021/03/05 13:11:34;;;;;;;11.43;4.00;;;;;;;;;;5099751;28;20231;-53
2021/03/05 13:14:02;;;;;;;7.60;3.97;;;;;;;;;;5114684;28;20213;-51
2021/03/05 13:17:02;;;;;;;12.45;5.47;;;;;;;;;;5119278;28;20238;-51
2021/03/05 13:19:29;;;;;;;6.20;3.10;;;;;;;;;;5118586;28;20207;-49
2021/03/05 13:22:24;;;;;;;6.55;3.95;;;;;;;;;;5119673;28;20170;-55
2021/03/05 13:24:52;;;;;;;7.65;3.65;;;;;;;;;;5097153;28;20235;-56
2021/03/05 13:27:21;;;;;;;7.28;3.00;;;;;;;;;;5076227;28;20194;-47
2021/03/05 13:29:55;;;;;;;6.32;3.05;;;;;;;;;;5055604;28;20197;-46
2021/03/05 13:32:22;;;;;;;6.47;3.40;;;;;;;;;;5068168;22;20287;-48
2021/03/05 13:34:49;;;;;;;12.02;5.15;;;;;;;;;;5056016;28;20189;-55
2021/03/05 13:37:52;;;;;;;5.10;2.90;;;;;;;;;;5055399;28;20222;-50
2021/03/05 13:40:19;;;;;;;5.45;2.97;;;;;;;;;;5055351;28;20198;-53
2021/03/05 13:42:47;;;;;;;7.57;2.58;;;;;;;;;;5053931;28;20195;-52
2021/03/05 13:45:43;;;;;;;6.85;3.30;;;;;;;;;;5055523;28;20216;-49
2021/03/05 13:48:11;;;;;;;4.68;1.98;;;;;;;;;;5107881;28;20234;-48
2021/03/05 13:50:38;;;;;;;7.47;2.25;;;;;;;;;;5118285;28;20228;-52
2021/03/05 13:53:19;;;;;;;19.63;4.22;;;;;;;;;;5118748;28;20230;-49
2021/03/05 13:55:46;;;;;;;5.72;2.63;;;;;;;;;;5066551;28;20226;-50
2021/03/05 13:58:14;;;;;;;14.35;3.25;;;;;;;;;;5054772;28;20211;-50
2021/03/05 14:00:41;;;;;;;3.55;2.20;;;;;;;;;;5055204;28;20217;-46
2021/03/05 14:03:08;;;;;;;5.55;2.05;;;;;;;;;;5055194;28;20206;-50
2021/03/05 14:06:04;;;;;;;5.43;3.10;;;;;;;;;;5035684;28;20245;-50
2021/03/05 14:08:31;;;;;;;4.95;1.90;;;;;;;;;;5034682;28;20189;-50
2021/03/05 14:10:58;;;;;;;11.07;2.17;;;;;;;;;;5034850;28;20211;-52
2021/03/05 14:13:40;;;;;;;5.28;2.47;;;;;;;;;;5053990;28;20226;-53
2021/03/05 14:16:06;;;;;;;5.63;2.53;;;;;;;;;;5054490;28;20268;-51
2021/03/05 14:18:34;;;;;;;4.28;2.40;;;;;;;;;;5053751;28;20204;-49
2021/03/05 14:21:06;;;;;;;5.20;2.20;;;;;;;;;;5054766;28;20227;-49
2021/03/05 14:23:33;;;;;;;7.63;2.50;;;;;;;;;;5054780;28;20233;-52
2021/03/05 14:26:00;;;;;;;4.07;2.30;;;;;;;;;;5047554;28;20247;-47
2021/03/05 14:31:31;;;;;;;3.92;2.65;;;;;;;;;;5043858;28;20198;-56
2021/03/05 14:33:58;;;;;;;9.25;1.80;;;;;;;;;;5052978;28;20267;-51
2021/03/05 14:36:39;;;;;;;5.13;2.17;;;;;;;;;;5052800;28;20210;-50
2021/03/05 14:39:12;;;;;;;4.53;2.30;;;;;;;;;;5053163;28;20195;-48
2021/03/05 14:41:39;;;;;;;3.88;2.13;;;;;;;;;;5052920;28;20223;-52
2021/03/05 14:44:11;;;;;;;4.50;1.88;;;;;;;;;;5046652;28;20190;-55
2021/03/05 14:46:38;;;;;;;5.35;2.10;;;;;;;;;;5096791;27;20252;-49
2021/03/05 14:49:07;;;;;;;3.95;2.22;;;;;;;;;;5136856;27;20201;-50
2021/03/05 14:51:43;;;;;;;5.82;2.60;;;;;;;;;;5136570;27;20245;-58
2021/03/05 14:54:10;;;;;;;4.50;2.03;;;;;;;;;;5136727;27;20222;-57
2021/03/05 14:56:37;;;;;;;5.13;2.67;;;;;;;;;;5137048;27;20229;-50
2021/03/05 14:59:08;;;;;;;3.45;1.70;;;;;;;;;;5136777;28;20230;-50
2021/03/05 15:01:35;;;;;;;8.55;2.83;;;;;;;;;;5135395;28;20260;-57
2021/03/05 15:04:03;;;;;;;5.18;2.75;;;;;;;;;;5132872;28;20208;-53
2021/03/05 15:06:51;;;;;;;5.55;2.60;;;;;;;;;;5138313;28;20294;-56
2021/03/05 15:09:18;;;;;;;4.70;1.90;;;;;;;;;;5135342;28;20227;-54
2021/03/05 15:11:44;;;;;;;6.28;1.67;;;;;;;;;;5137579;28;20207;-56
2021/03/05 15:14:14;;;;;;;4.47;1.80;;;;;;;;;;5137521;28;20184;-45
2021/03/05 15:16:47;;;;;;;5.10;1.92;;;;;;;;;;5137954;28;20390;-47
2021/03/05 15:19:27;;;;;;;10.60;2.10;;;;;;;;;;5117926;28;20223;-50
2021/03/05 15:22:01;;;;;;;2.50;1.30;;;;;;;;;;5115565;28;20193;-47
2021/03/05 15:24:53;;;;;;;7.63;1.58;;;;;;;;;;5065925;28;20251;-56